sensor_id;sensor_type;location;lat;lon;timestamp;P1;durP1;ratioP1;P2;durP2;ratioP2
42168;SDS011;27838;43.858;25.974;2024-03-02T00:00:53;23.98;;;8.15;;
42168;SDS011;27838;43.858;25.974;2024-03-02T00:03:20;24.15;;;8.35;;
42168;SDS011;27838;43.858;25.974;2024-03-02T00:05:50;26.35;;;8.40;;
42168;SDS011;27838;43.858;25.974;2024-03-02T00:08:24;22.00;;;7.18;;
42168;SDS011;27838;43.858;25.974;2024-03-02T00:10:51;18.25;;;7.03;;
42168;SDS011;27838;43.858;25.974;2024-03-02T00:15:54;21.02;;;5.97;;
42168;SDS011;27838;43.858;25.974;2024-03-02T00:20:53;27.45;;;7.13;;
42168;SDS011;27838;43.858;25.974;2024-03-02T00:23:21;15.52;;;6.15;;
42168;SDS011;27838;43.858;25.974;2024-03-02T00:25:48;20.50;;;6.65;;
42168;SDS011;27838;43.858;25.974;2024-03-02T00:28:20;17.10;;;6.53;;
42168;SDS011;27838;43.858;25.974;2024-03-02T00:33:19;16.50;;;6.75;;
42168;SDS011;27838;43.858;25.974;2024-03-02T00:35:47;23.33;;;6.60;;
42168;SDS011;27838;43.858;25.974;2024-03-02T00:38:14;24.45;;;7.38;;
42168;SDS011;27838;43.858;25.974;2024-03-02T00:40:44;25.92;;;8.63;;
42168;SDS011;27838;43.858;25.974;2024-03-02T00:46:06;22.83;;;7.63;;
42168;SDS011;27838;43.858;25.974;2024-03-02T00:48:32;25.60;;;8.02;;
42168;SDS011;27838;43.858;25.974;2024-03-02T00:51:01;15.68;;;7.43;;
42168;SDS011;27838;43.858;25.974;2024-03-02T00:53:29;16.23;;;7.55;;
42168;SDS011;27838;43.858;25.974;2024-03-02T00:55:57;21.80;;;7.95;;
42168;SDS011;27838;43.858;25.974;2024-03-02T00:58:24;22.73;;;7.65;;
42168;SDS011;27838;43.858;25.974;2024-03-02T01:00:51;20.23;;;7.00;;
42168;SDS011;27838;43.858;25.974;2024-03-02T01:03:18;22.98;;;6.72;;
42168;SDS011;27838;43.858;25.974;2024-03-02T01:05:44;15.05;;;7.55;;
42168;SDS011;27838;43.858;25.974;2024-03-02T01:08:11;22.42;;;8.38;;
42168;SDS011;27838;43.858;25.974;2024-03-02T01:10:41;23.75;;;8.07;;
42168;SDS011;27838;43.858;25.974;2024-03-02T01:13:07;19.95;;;8.55;;
42168;SDS011;27838;43.858;25.974;2024-03-02T01:15:34;27.38;;;8.65;;
42168;SDS011;27838;43.858;25.974;2024-03-02T01:18:01;21.08;;;9.45;;
42168;SDS011;27838;43.858;25.974;2024-03-02T01:20:28;19.05;;;9.32;;
42168;SDS011;27838;43.858;25.974;2024-03-02T01:22:54;15.45;;;8.20;;
42168;SDS011;27838;43.858;25.974;2024-03-02T01:25:21;20.00;;;8.65;;
42168;SDS011;27838;43.858;25.974;2024-03-02T01:27:47;23.92;;;8.98;;
42168;SDS011;27838;43.858;25.974;2024-03-02T01:30:14;25.83;;;9.55;;
42168;SDS011;27838;43.858;25.974;2024-03-02T01:32:40;24.23;;;9.02;;
42168;SDS011;27838;43.858;25.974;2024-03-02T01:35:07;26.00;;;9.75;;
42168;SDS011;27838;43.858;25.974;2024-03-02T01:37:34;25.70;;;11.40;;
42168;SDS011;27838;43.858;25.974;2024-03-02T01:40:00;27.98;;;11.38;;
42168;SDS011;27838;43.858;25.974;2024-03-02T01:42:27;26.73;;;13.55;;
42168;SDS011;27838;43.858;25.974;2024-03-02T01:44:55;30.02;;;11.93;;
42168;SDS011;27838;43.858;25.974;2024-03-02T01:47:22;39.85;;;14.05;;
42168;SDS011;27838;43.858;25.974;2024-03-02T01:49:48;44.20;;;14.32;;
42168;SDS011;27838;43.858;25.974;2024-03-02T01:52:15;31.60;;;13.98;;
42168;SDS011;27838;43.858;25.974;2024-03-02T01:54:42;33.70;;;15.45;;
42168;SDS011;27838;43.858;25.974;2024-03-02T01:57:09;39.10;;;16.65;;
42168;SDS011;27838;43.858;25.974;2024-03-02T01:59:36;40.17;;;16.23;;
42168;SDS011;27838;43.858;25.974;2024-03-02T02:02:02;43.75;;;15.80;;
42168;SDS011;27838;43.858;25.974;2024-03-02T02:04:29;46.42;;;17.42;;
42168;SDS011;27838;43.858;25.974;2024-03-02T02:06:56;42.63;;;15.65;;
42168;SDS011;27838;43.858;25.974;2024-03-02T02:09:22;35.25;;;14.10;;
42168;SDS011;27838;43.858;25.974;2024-03-02T02:11:50;35.60;;;13.18;;
42168;SDS011;27838;43.858;25.974;2024-03-02T02:14:17;40.58;;;14.40;;
42168;SDS011;27838;43.858;25.974;2024-03-02T02:16:44;41.35;;;13.43;;
42168;SDS011;27838;43.858;25.974;2024-03-02T02:19:10;33.95;;;12.73;;
42168;SDS011;27838;43.858;25.974;2024-03-02T02:21:38;39.45;;;13.18;;
42168;SDS011;27838;43.858;25.974;2024-03-02T02:24:08;28.83;;;12.30;;
42168;SDS011;27838;43.858;25.974;2024-03-02T02:26:34;31.10;;;13.25;;
42168;SDS011;27838;43.858;25.974;2024-03-02T02:29:01;41.10;;;14.13;;
42168;SDS011;27838;43.858;25.974;2024-03-02T02:31:36;36.42;;;14.43;;
42168;SDS011;27838;43.858;25.974;2024-03-02T02:34:05;29.63;;;13.98;;
42168;SDS011;27838;43.858;25.974;2024-03-02T02:36:32;40.10;;;17.30;;
42168;SDS011;27838;43.858;25.974;2024-03-02T02:39:01;37.60;;;17.95;;
42168;SDS011;27838;43.858;25.974;2024-03-02T02:41:29;45.75;;;19.10;;
42168;SDS011;27838;43.858;25.974;2024-03-02T02:43:56;37.65;;;17.15;;
42168;SDS011;27838;43.858;25.974;2024-03-02T02:46:23;33.15;;;15.88;;
42168;SDS011;27838;43.858;25.974;2024-03-02T02:48:50;32.25;;;12.85;;
42168;SDS011;27838;43.858;25.974;2024-03-02T02:51:18;38.53;;;13.75;;
42168;SDS011;27838;43.858;25.974;2024-03-02T02:53:44;51.13;;;16.00;;
42168;SDS011;27838;43.858;25.974;2024-03-02T02:56:11;37.45;;;16.98;;
42168;SDS011;27838;43.858;25.974;2024-03-02T02:58:39;48.92;;;18.38;;
42168;SDS011;27838;43.858;25.974;2024-03-02T03:01:07;53.17;;;21.08;;
42168;SDS011;27838;43.858;25.974;2024-03-02T03:03:33;43.97;;;20.38;;
42168;SDS011;27838;43.858;25.974;2024-03-02T03:06:00;42.40;;;19.13;;
42168;SDS011;27838;43.858;25.974;2024-03-02T03:08:27;43.75;;;21.13;;
42168;SDS011;27838;43.858;25.974;2024-03-02T03:10:54;38.53;;;20.05;;
42168;SDS011;27838;43.858;25.974;2024-03-02T03:13:20;51.97;;;22.58;;
42168;SDS011;27838;43.858;25.974;2024-03-02T03:15:47;53.78;;;25.48;;
42168;SDS011;27838;43.858;25.974;2024-03-02T03:18:14;53.08;;;25.42;;
42168;SDS011;27838;43.858;25.974;2024-03-02T03:20:40;55.15;;;27.00;;
42168;SDS011;27838;43.858;25.974;2024-03-02T03:23:07;52.30;;;28.67;;
42168;SDS011;27838;43.858;25.974;2024-03-02T03:25:34;59.17;;;28.63;;
42168;SDS011;27838;43.858;25.974;2024-03-02T03:28:00;62.90;;;32.55;;
42168;SDS011;27838;43.858;25.974;2024-03-02T03:30:28;68.45;;;33.17;;
42168;SDS011;27838;43.858;25.974;2024-03-02T03:32:55;80.65;;;35.03;;
42168;SDS011;27838;43.858;25.974;2024-03-02T03:35:21;87.03;;;35.33;;
42168;SDS011;27838;43.858;25.974;2024-03-02T03:37:48;76.80;;;33.72;;
42168;SDS011;27838;43.858;25.974;2024-03-02T03:40:14;73.20;;;33.33;;
42168;SDS011;27838;43.858;25.974;2024-03-02T03:42:41;69.78;;;29.35;;
42168;SDS011;27838;43.858;25.974;2024-03-02T03:45:08;75.38;;;28.60;;
42168;SDS011;27838;43.858;25.974;2024-03-02T03:47:35;75.55;;;29.35;;
42168;SDS011;27838;43.858;25.974;2024-03-02T03:50:01;73.65;;;28.60;;
42168;SDS011;27838;43.858;25.974;2024-03-02T03:52:31;71.72;;;26.38;;
42168;SDS011;27838;43.858;25.974;2024-03-02T03:54:58;66.40;;;25.50;;
42168;SDS011;27838;43.858;25.974;2024-03-02T03:57:25;75.32;;;23.90;;
42168;SDS011;27838;43.858;25.974;2024-03-02T03:59:52;80.38;;;25.33;;
42168;SDS011;27838;43.858;25.974;2024-03-02T04:02:19;66.93;;;23.40;;
42168;SDS011;27838;43.858;25.974;2024-03-02T04:04:46;67.03;;;21.40;;
42168;SDS011;27838;43.858;25.974;2024-03-02T04:07:12;57.53;;;21.33;;
42168;SDS011;27838;43.858;25.974;2024-03-02T04:09:39;65.18;;;21.48;;
42168;SDS011;27838;43.858;25.974;2024-03-02T04:12:05;68.95;;;22.25;;
42168;SDS011;27838;43.858;25.974;2024-03-02T04:14:32;54.15;;;20.00;;
42168;SDS011;27838;43.858;25.974;2024-03-02T04:16:59;65.10;;;21.10;;
42168;SDS011;27838;43.858;25.974;2024-03-02T04:19:25;59.40;;;19.27;;
42168;SDS011;27838;43.858;25.974;2024-03-02T04:21:52;55.65;;;20.02;;
42168;SDS011;27838;43.858;25.974;2024-03-02T04:24:18;46.90;;;17.38;;
42168;SDS011;27838;43.858;25.974;2024-03-02T04:26:45;45.10;;;15.77;;
42168;SDS011;27838;43.858;25.974;2024-03-02T04:29:12;37.20;;;15.32;;
42168;SDS011;27838;43.858;25.974;2024-03-02T04:31:38;42.38;;;13.77;;
42168;SDS011;27838;43.858;25.974;2024-03-02T04:34:05;46.22;;;14.18;;
42168;SDS011;27838;43.858;25.974;2024-03-02T04:36:31;28.50;;;12.85;;
42168;SDS011;27838;43.858;25.974;2024-03-02T04:38:58;27.83;;;11.40;;
42168;SDS011;27838;43.858;25.974;2024-03-02T04:41:24;24.45;;;11.05;;
42168;SDS011;27838;43.858;25.974;2024-03-02T04:43:51;28.15;;;10.38;;
42168;SDS011;27838;43.858;25.974;2024-03-02T04:46:17;28.33;;;10.50;;
42168;SDS011;27838;43.858;25.974;2024-03-02T04:48:44;26.77;;;10.60;;
42168;SDS011;27838;43.858;25.974;2024-03-02T04:51:10;27.35;;;10.43;;
42168;SDS011;27838;43.858;25.974;2024-03-02T04:53:38;31.63;;;10.82;;
42168;SDS011;27838;43.858;25.974;2024-03-02T04:56:05;27.33;;;11.00;;
42168;SDS011;27838;43.858;25.974;2024-03-02T04:59:04;29.35;;;12.02;;
42168;SDS011;27838;43.858;25.974;2024-03-02T05:01:31;29.77;;;9.93;;
42168;SDS011;27838;43.858;25.974;2024-03-02T05:03:58;30.95;;;11.82;;
42168;SDS011;27838;43.858;25.974;2024-03-02T05:06:24;32.95;;;11.18;;
42168;SDS011;27838;43.858;25.974;2024-03-02T05:08:51;24.38;;;10.38;;
42168;SDS011;27838;43.858;25.974;2024-03-02T05:11:17;18.25;;;8.07;;
42168;SDS011;27838;43.858;25.974;2024-03-02T05:14:00;23.73;;;8.13;;
42168;SDS011;27838;43.858;25.974;2024-03-02T05:16:27;30.80;;;9.40;;
42168;SDS011;27838;43.858;25.974;2024-03-02T05:18:53;36.50;;;13.00;;
42168;SDS011;27838;43.858;25.974;2024-03-02T05:21:20;31.25;;;11.90;;
42168;SDS011;27838;43.858;25.974;2024-03-02T05:23:47;19.98;;;9.73;;
42168;SDS011;27838;43.858;25.974;2024-03-02T05:26:13;27.98;;;10.25;;
42168;SDS011;27838;43.858;25.974;2024-03-02T05:28:40;33.40;;;11.15;;
42168;SDS011;27838;43.858;25.974;2024-03-02T05:31:10;28.58;;;11.20;;
42168;SDS011;27838;43.858;25.974;2024-03-02T05:33:37;28.98;;;12.57;;
42168;SDS011;27838;43.858;25.974;2024-03-02T05:36:04;34.45;;;12.45;;
42168;SDS011;27838;43.858;25.974;2024-03-02T05:38:31;31.73;;;11.65;;
42168;SDS011;27838;43.858;25.974;2024-03-02T05:40:58;27.63;;;12.98;;
42168;SDS011;27838;43.858;25.974;2024-03-02T05:43:24;46.42;;;15.45;;
42168;SDS011;27838;43.858;25.974;2024-03-02T05:45:51;37.60;;;15.25;;
42168;SDS011;27838;43.858;25.974;2024-03-02T05:48:18;40.58;;;14.27;;
42168;SDS011;27838;43.858;25.974;2024-03-02T05:50:44;36.88;;;14.02;;
42168;SDS011;27838;43.858;25.974;2024-03-02T05:53:11;25.15;;;13.05;;
42168;SDS011;27838;43.858;25.974;2024-03-02T05:55:37;27.15;;;13.32;;
42168;SDS011;27838;43.858;25.974;2024-03-02T05:58:04;37.65;;;13.75;;
42168;SDS011;27838;43.858;25.974;2024-03-02T06:00:47;28.83;;;12.60;;
42168;SDS011;27838;43.858;25.974;2024-03-02T06:03:14;25.45;;;12.20;;
42168;SDS011;27838;43.858;25.974;2024-03-02T06:05:40;24.25;;;11.18;;
42168;SDS011;27838;43.858;25.974;2024-03-02T06:08:07;22.85;;;11.38;;
42168;SDS011;27838;43.858;25.974;2024-03-02T06:10:34;24.58;;;10.77;;
42168;SDS011;27838;43.858;25.974;2024-03-02T06:13:00;21.75;;;11.10;;
42168;SDS011;27838;43.858;25.974;2024-03-02T06:15:27;19.75;;;10.13;;
42168;SDS011;27838;43.858;25.974;2024-03-02T06:17:53;17.17;;;10.02;;
42168;SDS011;27838;43.858;25.974;2024-03-02T06:20:20;24.08;;;11.15;;
42168;SDS011;27838;43.858;25.974;2024-03-02T06:22:46;23.98;;;12.38;;
42168;SDS011;27838;43.858;25.974;2024-03-02T06:25:13;28.27;;;13.63;;
42168;SDS011;27838;43.858;25.974;2024-03-02T06:27:39;19.30;;;12.98;;
42168;SDS011;27838;43.858;25.974;2024-03-02T06:30:06;20.45;;;10.77;;
42168;SDS011;27838;43.858;25.974;2024-03-02T06:32:33;18.23;;;10.65;;
42168;SDS011;27838;43.858;25.974;2024-03-02T06:35:00;19.33;;;10.43;;
42168;SDS011;27838;43.858;25.974;2024-03-02T06:37:26;24.83;;;11.05;;
42168;SDS011;27838;43.858;25.974;2024-03-02T06:39:53;18.08;;;11.40;;
42168;SDS011;27838;43.858;25.974;2024-03-02T06:42:19;22.73;;;9.55;;
42168;SDS011;27838;43.858;25.974;2024-03-02T06:44:46;19.27;;;10.10;;
42168;SDS011;27838;43.858;25.974;2024-03-02T06:47:12;21.50;;;11.27;;
42168;SDS011;27838;43.858;25.974;2024-03-02T06:49:41;20.25;;;12.40;;
42168;SDS011;27838;43.858;25.974;2024-03-02T06:52:08;27.27;;;12.82;;
42168;SDS011;27838;43.858;25.974;2024-03-02T06:54:34;27.00;;;11.55;;
42168;SDS011;27838;43.858;25.974;2024-03-02T06:57:03;26.75;;;11.15;;
42168;SDS011;27838;43.858;25.974;2024-03-02T06:59:29;22.67;;;12.05;;
42168;SDS011;27838;43.858;25.974;2024-03-02T07:01:56;22.33;;;11.35;;
42168;SDS011;27838;43.858;25.974;2024-03-02T07:04:23;23.58;;;10.60;;
42168;SDS011;27838;43.858;25.974;2024-03-02T07:06:49;24.23;;;11.43;;
42168;SDS011;27838;43.858;25.974;2024-03-02T07:09:16;35.13;;;14.35;;
42168;SDS011;27838;43.858;25.974;2024-03-02T07:11:42;33.17;;;13.65;;
42168;SDS011;27838;43.858;25.974;2024-03-02T07:14:09;31.98;;;13.52;;
42168;SDS011;27838;43.858;25.974;2024-03-02T07:16:37;32.20;;;13.43;;
42168;SDS011;27838;43.858;25.974;2024-03-02T07:19:05;34.40;;;14.50;;
42168;SDS011;27838;43.858;25.974;2024-03-02T07:21:32;38.92;;;13.73;;
42168;SDS011;27838;43.858;25.974;2024-03-02T07:23:58;34.17;;;13.25;;
42168;SDS011;27838;43.858;25.974;2024-03-02T07:26:27;27.20;;;13.20;;
42168;SDS011;27838;43.858;25.974;2024-03-02T07:28:56;31.65;;;13.27;;
42168;SDS011;27838;43.858;25.974;2024-03-02T07:31:22;40.78;;;15.65;;
42168;SDS011;27838;43.858;25.974;2024-03-02T07:33:49;42.78;;;15.88;;
42168;SDS011;27838;43.858;25.974;2024-03-02T07:36:16;24.65;;;12.27;;
42168;SDS011;27838;43.858;25.974;2024-03-02T07:38:44;24.65;;;13.13;;
42168;SDS011;27838;43.858;25.974;2024-03-02T07:41:11;20.55;;;11.57;;
42168;SDS011;27838;43.858;25.974;2024-03-02T07:43:38;21.83;;;10.52;;
42168;SDS011;27838;43.858;25.974;2024-03-02T07:46:04;17.50;;;10.32;;
42168;SDS011;27838;43.858;25.974;2024-03-02T07:48:31;20.13;;;10.75;;
42168;SDS011;27838;43.858;25.974;2024-03-02T07:50:57;19.77;;;10.25;;
42168;SDS011;27838;43.858;25.974;2024-03-02T07:53:24;18.38;;;11.57;;
42168;SDS011;27838;43.858;25.974;2024-03-02T07:55:51;24.95;;;11.85;;
42168;SDS011;27838;43.858;25.974;2024-03-02T07:58:17;23.98;;;11.27;;
42168;SDS011;27838;43.858;25.974;2024-03-02T08:00:44;21.85;;;10.55;;
42168;SDS011;27838;43.858;25.974;2024-03-02T08:03:11;23.83;;;11.43;;
42168;SDS011;27838;43.858;25.974;2024-03-02T08:05:40;26.15;;;12.20;;
42168;SDS011;27838;43.858;25.974;2024-03-02T08:08:06;17.65;;;11.27;;
42168;SDS011;27838;43.858;25.974;2024-03-02T08:10:33;20.35;;;10.05;;
42168;SDS011;27838;43.858;25.974;2024-03-02T08:12:59;18.40;;;10.45;;
42168;SDS011;27838;43.858;25.974;2024-03-02T08:15:26;16.88;;;10.60;;
42168;SDS011;27838;43.858;25.974;2024-03-02T08:17:52;20.73;;;10.55;;
42168;SDS011;27838;43.858;25.974;2024-03-02T08:20:19;22.17;;;10.38;;
42168;SDS011;27838;43.858;25.974;2024-03-02T08:22:46;24.92;;;10.80;;
42168;SDS011;27838;43.858;25.974;2024-03-02T08:25:13;20.38;;;10.63;;
42168;SDS011;27838;43.858;25.974;2024-03-02T08:27:40;24.92;;;11.05;;
42168;SDS011;27838;43.858;25.974;2024-03-02T08:30:07;18.08;;;10.73;;
42168;SDS011;27838;43.858;25.974;2024-03-02T08:32:35;20.70;;;10.68;;
42168;SDS011;27838;43.858;25.974;2024-03-02T08:35:02;17.27;;;10.02;;
42168;SDS011;27838;43.858;25.974;2024-03-02T08:37:29;29.70;;;12.10;;
42168;SDS011;27838;43.858;25.974;2024-03-02T08:39:55;25.50;;;11.25;;
42168;SDS011;27838;43.858;25.974;2024-03-02T08:42:22;36.40;;;11.93;;
42168;SDS011;27838;43.858;25.974;2024-03-02T08:44:49;29.77;;;12.50;;
42168;SDS011;27838;43.858;25.974;2024-03-02T08:47:16;21.00;;;10.13;;
42168;SDS011;27838;43.858;25.974;2024-03-02T08:49:43;17.95;;;9.93;;
42168;SDS011;27838;43.858;25.974;2024-03-02T08:52:09;17.80;;;10.05;;
42168;SDS011;27838;43.858;25.974;2024-03-02T08:54:38;22.92;;;11.30;;
42168;SDS011;27838;43.858;25.974;2024-03-02T08:57:05;20.10;;;9.85;;
42168;SDS011;27838;43.858;25.974;2024-03-02T08:59:33;35.05;;;11.55;;
42168;SDS011;27838;43.858;25.974;2024-03-02T09:01:59;24.67;;;11.13;;
42168;SDS011;27838;43.858;25.974;2024-03-02T09:04:26;24.85;;;12.38;;
42168;SDS011;27838;43.858;25.974;2024-03-02T09:06:53;20.23;;;10.18;;
42168;SDS011;27838;43.858;25.974;2024-03-02T09:09:20;21.48;;;10.60;;
42168;SDS011;27838;43.858;25.974;2024-03-02T09:11:46;25.42;;;11.23;;
42168;SDS011;27838;43.858;25.974;2024-03-02T09:14:13;21.60;;;10.45;;
42168;SDS011;27838;43.858;25.974;2024-03-02T09:16:40;17.88;;;10.30;;
42168;SDS011;27838;43.858;25.974;2024-03-02T09:19:07;27.27;;;11.57;;
42168;SDS011;27838;43.858;25.974;2024-03-02T09:21:34;22.75;;;10.75;;
42168;SDS011;27838;43.858;25.974;2024-03-02T09:24:01;27.52;;;12.05;;
42168;SDS011;27838;43.858;25.974;2024-03-02T09:26:28;17.88;;;10.05;;
42168;SDS011;27838;43.858;25.974;2024-03-02T09:28:55;18.90;;;10.00;;
42168;SDS011;27838;43.858;25.974;2024-03-02T09:31:21;21.08;;;10.50;;
42168;SDS011;27838;43.858;25.974;2024-03-02T09:33:48;35.63;;;13.73;;
42168;SDS011;27838;43.858;25.974;2024-03-02T09:36:18;24.55;;;11.23;;
42168;SDS011;27838;43.858;25.974;2024-03-02T09:38:45;24.50;;;10.55;;
42168;SDS011;27838;43.858;25.974;2024-03-02T09:41:12;19.13;;;10.32;;
42168;SDS011;27838;43.858;25.974;2024-03-02T09:43:39;25.58;;;10.55;;
42168;SDS011;27838;43.858;25.974;2024-03-02T09:46:07;24.67;;;10.45;;
42168;SDS011;27838;43.858;25.974;2024-03-02T09:48:35;33.22;;;13.10;;
42168;SDS011;27838;43.858;25.974;2024-03-02T09:51:02;32.97;;;14.02;;
42168;SDS011;27838;43.858;25.974;2024-03-02T09:53:31;23.33;;;11.13;;
42168;SDS011;27838;43.858;25.974;2024-03-02T09:55:59;27.40;;;11.15;;
42168;SDS011;27838;43.858;25.974;2024-03-02T09:58:26;21.48;;;10.88;;
42168;SDS011;27838;43.858;25.974;2024-03-02T10:00:53;24.60;;;10.90;;
42168;SDS011;27838;43.858;25.974;2024-03-02T10:03:19;20.52;;;11.02;;
42168;SDS011;27838;43.858;25.974;2024-03-02T10:05:46;18.80;;;10.65;;
42168;SDS011;27838;43.858;25.974;2024-03-02T10:08:13;21.67;;;11.27;;
42168;SDS011;27838;43.858;25.974;2024-03-02T10:10:40;18.80;;;10.43;;
42168;SDS011;27838;43.858;25.974;2024-03-02T10:13:10;23.50;;;10.88;;
42168;SDS011;27838;43.858;25.974;2024-03-02T10:15:37;22.42;;;10.70;;
42168;SDS011;27838;43.858;25.974;2024-03-02T10:18:10;18.23;;;11.00;;
42168;SDS011;27838;43.858;25.974;2024-03-02T10:20:41;60.10;;;36.40;;
42168;SDS011;27838;43.858;25.974;2024-03-02T10:23:11;65.22;;;42.85;;
42168;SDS011;27838;43.858;25.974;2024-03-02T10:25:42;42.72;;;17.50;;
42168;SDS011;27838;43.858;25.974;2024-03-02T10:28:10;17.42;;;11.20;;
42168;SDS011;27838;43.858;25.974;2024-03-02T10:30:36;21.88;;;11.00;;
42168;SDS011;27838;43.858;25.974;2024-03-02T10:33:03;20.52;;;11.30;;
42168;SDS011;27838;43.858;25.974;2024-03-02T10:35:32;25.50;;;13.35;;
42168;SDS011;27838;43.858;25.974;2024-03-02T10:38:01;22.50;;;12.05;;
42168;SDS011;27838;43.858;25.974;2024-03-02T10:40:30;23.33;;;11.63;;
42168;SDS011;27838;43.858;25.974;2024-03-02T10:42:57;19.42;;;12.05;;
42168;SDS011;27838;43.858;25.974;2024-03-02T10:45:25;27.58;;;12.25;;
42168;SDS011;27838;43.858;25.974;2024-03-02T10:47:51;23.65;;;12.45;;
42168;SDS011;27838;43.858;25.974;2024-03-02T10:50:18;22.95;;;11.48;;
42168;SDS011;27838;43.858;25.974;2024-03-02T10:52:45;25.05;;;12.85;;
42168;SDS011;27838;43.858;25.974;2024-03-02T10:55:12;30.90;;;12.52;;
42168;SDS011;27838;43.858;25.974;2024-03-02T11:00:12;21.25;;;10.50;;
42168;SDS011;27838;43.858;25.974;2024-03-02T11:02:42;24.45;;;11.60;;
42168;SDS011;27838;43.858;25.974;2024-03-02T11:05:14;20.95;;;11.05;;
42168;SDS011;27838;43.858;25.974;2024-03-02T11:07:50;23.58;;;11.07;;
42168;SDS011;27838;43.858;25.974;2024-03-02T11:10:19;19.98;;;10.57;;
42168;SDS011;27838;43.858;25.974;2024-03-02T11:12:56;29.17;;;10.82;;
42168;SDS011;27838;43.858;25.974;2024-03-02T11:15:29;24.58;;;11.40;;
42168;SDS011;27838;43.858;25.974;2024-03-02T11:17:57;25.10;;;11.48;;
42168;SDS011;27838;43.858;25.974;2024-03-02T11:20:24;26.40;;;13.10;;
42168;SDS011;27838;43.858;25.974;2024-03-02T11:22:51;27.02;;;12.68;;
42168;SDS011;27838;43.858;25.974;2024-03-02T11:25:27;32.20;;;19.08;;
42168;SDS011;27838;43.858;25.974;2024-03-02T11:35:35;29.92;;;13.52;;
42168;SDS011;27838;43.858;25.974;2024-03-02T11:38:11;22.50;;;11.93;;
42168;SDS011;27838;43.858;25.974;2024-03-02T11:40:39;29.58;;;11.73;;
42168;SDS011;27838;43.858;25.974;2024-03-02T11:43:06;20.20;;;11.02;;
42168;SDS011;27838;43.858;25.974;2024-03-02T11:45:34;23.15;;;12.82;;
42168;SDS011;27838;43.858;25.974;2024-03-02T11:48:05;23.42;;;11.98;;
42168;SDS011;27838;43.858;25.974;2024-03-02T11:50:36;24.27;;;12.68;;
42168;SDS011;27838;43.858;25.974;2024-03-02T11:53:08;26.13;;;12.88;;
42168;SDS011;27838;43.858;25.974;2024-03-02T11:55:37;21.10;;;11.43;;
42168;SDS011;27838;43.858;25.974;2024-03-02T11:58:05;25.35;;;11.48;;
42168;SDS011;27838;43.858;25.974;2024-03-02T12:00:32;24.65;;;12.38;;
42168;SDS011;27838;43.858;25.974;2024-03-02T12:03:01;23.23;;;11.27;;
42168;SDS011;27838;43.858;25.974;2024-03-02T12:05:30;28.30;;;11.88;;
42168;SDS011;27838;43.858;25.974;2024-03-02T12:07:58;27.23;;;12.18;;
42168;SDS011;27838;43.858;25.974;2024-03-02T12:10:26;21.33;;;11.48;;
42168;SDS011;27838;43.858;25.974;2024-03-02T12:12:59;29.17;;;11.68;;
42168;SDS011;27838;43.858;25.974;2024-03-02T12:15:27;20.50;;;9.90;;
42168;SDS011;27838;43.858;25.974;2024-03-02T12:17:58;23.00;;;12.02;;
42168;SDS011;27838;43.858;25.974;2024-03-02T12:20:26;17.20;;;11.32;;
42168;SDS011;27838;43.858;25.974;2024-03-02T12:23:01;19.85;;;11.93;;
42168;SDS011;27838;43.858;25.974;2024-03-02T12:25:28;21.52;;;11.48;;
42168;SDS011;27838;43.858;25.974;2024-03-02T12:27:57;25.27;;;11.93;;
42168;SDS011;27838;43.858;25.974;2024-03-02T12:30:26;24.40;;;12.10;;
42168;SDS011;27838;43.858;25.974;2024-03-02T12:32:55;22.13;;;11.82;;
42168;SDS011;27838;43.858;25.974;2024-03-02T12:35:22;22.25;;;11.68;;
42168;SDS011;27838;43.858;25.974;2024-03-02T12:37:51;20.48;;;10.93;;
42168;SDS011;27838;43.858;25.974;2024-03-02T12:40:19;22.98;;;11.30;;
42168;SDS011;27838;43.858;25.974;2024-03-02T12:42:47;26.63;;;12.95;;
42168;SDS011;27838;43.858;25.974;2024-03-02T12:45:15;23.90;;;11.07;;
42168;SDS011;27838;43.858;25.974;2024-03-02T12:47:48;23.23;;;11.00;;
42168;SDS011;27838;43.858;25.974;2024-03-02T12:50:15;28.10;;;11.48;;
42168;SDS011;27838;43.858;25.974;2024-03-02T12:52:42;20.77;;;11.05;;
42168;SDS011;27838;43.858;25.974;2024-03-02T12:55:09;19.73;;;11.13;;
42168;SDS011;27838;43.858;25.974;2024-03-02T12:57:35;19.13;;;10.20;;
42168;SDS011;27838;43.858;25.974;2024-03-02T13:00:03;19.77;;;10.55;;
42168;SDS011;27838;43.858;25.974;2024-03-02T13:02:34;27.95;;;10.98;;
42168;SDS011;27838;43.858;25.974;2024-03-02T13:05:02;19.33;;;9.68;;
42168;SDS011;27838;43.858;25.974;2024-03-02T13:07:29;16.88;;;9.88;;
42168;SDS011;27838;43.858;25.974;2024-03-02T13:09:56;24.65;;;11.10;;
42168;SDS011;27838;43.858;25.974;2024-03-02T13:12:24;26.65;;;11.95;;
42168;SDS011;27838;43.858;25.974;2024-03-02T13:14:53;35.42;;;14.35;;
42168;SDS011;27838;43.858;25.974;2024-03-02T13:17:20;29.77;;;12.63;;
42168;SDS011;27838;43.858;25.974;2024-03-02T13:19:57;21.73;;;10.55;;
42168;SDS011;27838;43.858;25.974;2024-03-02T13:22:25;25.05;;;10.20;;
42168;SDS011;27838;43.858;25.974;2024-03-02T13:24:52;21.85;;;10.52;;
42168;SDS011;27838;43.858;25.974;2024-03-02T13:27:19;19.08;;;9.27;;
42168;SDS011;27838;43.858;25.974;2024-03-02T13:29:47;19.67;;;9.82;;
42168;SDS011;27838;43.858;25.974;2024-03-02T13:32:14;24.20;;;9.88;;
42168;SDS011;27838;43.858;25.974;2024-03-02T13:34:45;16.00;;;9.45;;
42168;SDS011;27838;43.858;25.974;2024-03-02T13:37:12;27.08;;;10.65;;
42168;SDS011;27838;43.858;25.974;2024-03-02T13:39:38;18.23;;;9.98;;
42168;SDS011;27838;43.858;25.974;2024-03-02T13:42:10;22.98;;;10.93;;
42168;SDS011;27838;43.858;25.974;2024-03-02T13:44:39;26.70;;;10.63;;
42168;SDS011;27838;43.858;25.974;2024-03-02T13:47:06;19.45;;;10.60;;
42168;SDS011;27838;43.858;25.974;2024-03-02T13:49:33;17.73;;;10.40;;
42168;SDS011;27838;43.858;25.974;2024-03-02T13:52:02;19.20;;;11.73;;
42168;SDS011;27838;43.858;25.974;2024-03-02T13:54:41;20.35;;;11.70;;
42168;SDS011;27838;43.858;25.974;2024-03-02T13:57:12;22.75;;;10.02;;
42168;SDS011;27838;43.858;25.974;2024-03-02T13:59:38;16.98;;;10.25;;
42168;SDS011;27838;43.858;25.974;2024-03-02T14:02:05;20.10;;;10.35;;
42168;SDS011;27838;43.858;25.974;2024-03-02T14:04:32;21.27;;;9.82;;
42168;SDS011;27838;43.858;25.974;2024-03-02T14:07:00;19.50;;;10.07;;
42168;SDS011;27838;43.858;25.974;2024-03-02T14:09:27;17.52;;;9.73;;
42168;SDS011;27838;43.858;25.974;2024-03-02T14:11:54;20.58;;;9.60;;
42168;SDS011;27838;43.858;25.974;2024-03-02T14:14:21;21.33;;;11.20;;
42168;SDS011;27838;43.858;25.974;2024-03-02T14:16:48;22.98;;;9.60;;
42168;SDS011;27838;43.858;25.974;2024-03-02T14:19:15;18.52;;;9.40;;
42168;SDS011;27838;43.858;25.974;2024-03-02T14:21:41;17.08;;;8.25;;
42168;SDS011;27838;43.858;25.974;2024-03-02T14:24:08;25.02;;;9.32;;
42168;SDS011;27838;43.858;25.974;2024-03-02T14:26:35;22.20;;;10.82;;
42168;SDS011;27838;43.858;25.974;2024-03-02T14:29:02;14.40;;;8.77;;
42168;SDS011;27838;43.858;25.974;2024-03-02T14:31:29;40.65;;;20.02;;
42168;SDS011;27838;43.858;25.974;2024-03-02T14:33:57;22.83;;;8.70;;